createdAt,value
2022-12-01T00:01:10.209Z,100.00
2022-12-01T00:03:37.416Z,100.00
2022-12-01T00:06:11.327Z,100.00
2022-12-01T00:08:38.623Z,100.00
2022-12-01T00:11:10.350Z,100.00
2022-12-01T00:13:37.778Z,100.00
2022-12-01T00:16:30.733Z,100.00
2022-12-01T00:18:57.507Z,100.00
2022-12-01T00:21:25.701Z,100.00
2022-12-01T00:23:55.160Z,100.00
2022-12-01T00:26:22.978Z,100.00
2022-12-01T00:28:54.094Z,100.00
2022-12-01T00:31:21.463Z,100.00
2022-12-01T00:33:49.492Z,100.00
2022-12-01T00:36:16.174Z,100.00
2022-12-01T00:38:43.023Z,100.00
2022-12-01T00:41:09.785Z,100.00
2022-12-01T00:43:36.469Z,100.00
2022-12-01T00:46:03.717Z,100.00
2022-12-01T00:48:30.956Z,100.00
2022-12-01T00:50:57.674Z,100.00
2022-12-01T00:53:24.711Z,100.00
2022-12-01T00:55:53.962Z,100.00
2022-12-01T00:58:21.311Z,100.00
2022-12-01T01:00:47.970Z,100.00
2022-12-01T01:03:14.674Z,100.00
2022-12-01T01:05:42.972Z,100.00
2022-12-01T01:08:11.415Z,100.00
2022-12-01T01:10:42.524Z,100.00
2022-12-01T01:13:09.666Z,100.00
2022-12-01T01:15:36.964Z,100.00
2022-12-01T01:18:05.435Z,100.00
2022-12-01T01:20:32.317Z,100.00
2022-12-01T01:22:59.164Z,100.00
2022-12-01T01:25:25.786Z,100.00
2022-12-01T01:27:52.492Z,100.00
2022-12-01T01:30:19.692Z,100.00
2022-12-01T01:32:46.270Z,100.00
2022-12-01T01:35:12.902Z,100.00
2022-12-01T01:37:39.841Z,100.00
2022-12-01T01:40:07.245Z,100.00
2022-12-01T01:42:33.901Z,100.00
2022-12-01T01:45:00.634Z,100.00
2022-12-01T01:47:35.987Z,100.00
2022-12-01T01:50:09.866Z,100.00
2022-12-01T01:52:40.013Z,100.00
2022-12-01T01:55:08.069Z,100.00
2022-12-01T01:57:35.321Z,100.00
2022-12-01T02:00:08.007Z,100.00
2022-12-01T02:02:44.155Z,100.00
2022-12-01T02:05:21.280Z,100.00
2022-12-01T02:07:49.110Z,100.00
2022-12-01T02:10:22.519Z,100.00
2022-12-01T02:12:55.155Z,100.00
2022-12-01T02:15:48.929Z,100.00
2022-12-01T02:18:52.230Z,100.00
2022-12-01T02:21:21.893Z,100.00
2022-12-01T02:24:10.080Z,100.00
2022-12-01T02:26:50.578Z,100.00
2022-12-01T02:29:38.299Z,100.00
2022-12-01T02:32:13.455Z,100.00
2022-12-01T02:34:59.007Z,100.00
2022-12-01T02:37:40.359Z,100.00
2022-12-01T02:40:32.994Z,100.00
2022-12-01T02:43:03.760Z,100.00
2022-12-01T02:45:45.816Z,100.00
2022-12-01T02:48:19.411Z,100.00
2022-12-01T02:50:46.686Z,100.00
2022-12-01T02:53:17.328Z,100.00
2022-12-01T02:55:55.271Z,100.00
2022-12-01T02:58:22.631Z,100.00
2022-12-01T03:01:02.509Z,100.00
2022-12-01T03:03:45.112Z,100.00
2022-12-01T03:06:24.195Z,100.00
2022-12-01T03:09:09.486Z,100.00
2022-12-01T03:11:47.989Z,100.00
2022-12-01T03:14:38.726Z,100.00
2022-12-01T03:17:11.052Z,100.00
2022-12-01T03:19:48.488Z,100.00
2022-12-01T03:22:54.171Z,100.00
2022-12-01T03:25:24.496Z,100.00
2022-12-01T03:28:20.178Z,100.00
2022-12-01T03:30:46.456Z,100.00
2022-12-01T03:33:22.423Z,100.00
2022-12-01T03:35:55.856Z,100.00
2022-12-01T03:38:26.014Z,100.00
2022-12-01T03:40:58.235Z,100.00
2022-12-01T03:43:31.466Z,100.00
2022-12-01T03:46:17.789Z,100.00
2022-12-01T03:48:44.520Z,100.00
2022-12-01T03:51:18.147Z,100.00
2022-12-01T03:53:51.723Z,100.00
2022-12-01T03:56:22.306Z,100.00
2022-12-01T03:58:52.668Z,100.00
2022-12-01T04:01:20.785Z,100.00
2022-12-01T04:03:47.622Z,100.00
2022-12-01T04:06:15.183Z,100.00
2022-12-01T04:08:41.785Z,100.00
2022-12-01T04:11:32.254Z,100.00
2022-12-01T04:13:59.548Z,100.00
2022-12-01T04:16:26.251Z,100.00
2022-12-01T04:18:52.916Z,100.00
2022-12-01T04:21:19.492Z,100.00
2022-12-01T04:24:01.314Z,100.00
2022-12-01T04:26:34.156Z,100.00
2022-12-01T04:29:02.175Z,100.00
2022-12-01T04:31:28.785Z,100.00
2022-12-01T04:33:56.049Z,100.00
2022-12-01T04:36:24.345Z,100.00
2022-12-01T04:38:51.366Z,100.00
2022-12-01T04:41:18.173Z,100.00
2022-12-01T04:43:45.045Z,100.00
2022-12-01T04:46:12.053Z,100.00
2022-12-01T04:48:39.799Z,100.00
2022-12-01T04:51:08.319Z,100.00
2022-12-01T04:53:36.350Z,100.00
2022-12-01T04:56:03.504Z,100.00
2022-12-01T04:58:32.121Z,100.00
2022-12-01T05:01:07.586Z,100.00
2022-12-01T05:03:43.578Z,100.00
2022-12-01T05:06:13.659Z,100.00
2022-12-01T05:08:40.942Z,100.00
2022-12-01T05:11:08.533Z,100.00
2022-12-01T05:13:37.668Z,100.00
2022-12-01T05:16:09.316Z,100.00
2022-12-01T05:18:36.463Z,100.00
2022-12-01T05:21:04.907Z,100.00
2022-12-01T05:23:33.851Z,100.00
2022-12-01T05:26:01.883Z,100.00
2022-12-01T05:28:29.254Z,100.00
2022-12-01T05:30:56.602Z,100.00
2022-12-01T05:33:24.767Z,100.00
2022-12-01T05:35:52.072Z,100.00
2022-12-01T05:38:19.263Z,100.00
2022-12-01T05:40:53.786Z,100.00
2022-12-01T05:43:28.284Z,100.00
2022-12-01T05:45:56.139Z,100.00
2022-12-01T05:48:22.851Z,100.00
2022-12-01T05:50:49.449Z,100.00
2022-12-01T05:53:16.059Z,100.00
2022-12-01T05:55:42.847Z,100.00
2022-12-01T05:58:10.118Z,100.00
2022-12-01T06:00:42.279Z,100.00
2022-12-01T06:03:12.181Z,100.00
2022-12-01T06:05:38.796Z,100.00
2022-12-01T06:08:05.580Z,100.00
2022-12-01T06:10:32.202Z,100.00
2022-12-01T06:12:58.808Z,100.00
2022-12-01T06:15:25.909Z,100.00
2022-12-01T06:17:52.611Z,100.00
2022-12-01T06:20:19.355Z,100.00
2022-12-01T06:22:45.935Z,100.00
2022-12-01T06:25:12.584Z,100.00
2022-12-01T06:27:39.649Z,100.00
2022-12-01T06:30:06.973Z,100.00
2022-12-01T06:32:33.804Z,100.00
2022-12-01T06:35:00.480Z,100.00
2022-12-01T06:37:28.096Z,100.00
2022-12-01T06:39:54.719Z,100.00
2022-12-01T06:42:21.447Z,100.00
2022-12-01T06:44:48.116Z,100.00
2022-12-01T06:47:15.869Z,100.00
2022-12-01T06:49:42.653Z,100.00
2022-12-01T06:52:10.097Z,100.00
2022-12-01T06:54:37.658Z,100.00
2022-12-01T06:57:05.012Z,100.00
2022-12-01T06:59:32.005Z,100.00
2022-12-01T07:01:59.159Z,100.00
2022-12-01T07:04:26.055Z,100.00
2022-12-01T07:06:52.795Z,100.00
2022-12-01T07:09:19.384Z,100.00
2022-12-01T07:11:46.064Z,100.00
2022-12-01T07:14:23.926Z,100.00
2022-12-01T07:16:51.164Z,100.00
2022-12-01T07:19:18.283Z,100.00
2022-12-01T07:21:45.092Z,100.00
2022-12-01T07:24:14.842Z,100.00
2022-12-01T07:26:42.557Z,100.00
2022-12-01T07:29:10.748Z,100.00
2022-12-01T07:31:38.304Z,100.00
2022-12-01T07:34:05.872Z,100.00
2022-12-01T07:36:32.676Z,100.00
2022-12-01T07:39:00.196Z,100.00
2022-12-01T07:41:26.803Z,100.00
2022-12-01T07:43:55.356Z,100.00
2022-12-01T07:46:24.865Z,100.00
2022-12-01T07:48:52.950Z,100.00
2022-12-01T07:51:20.771Z,100.00
2022-12-01T07:53:49.353Z,100.00
2022-12-01T07:56:16.591Z,100.00
2022-12-01T07:58:43.592Z,100.00
2022-12-01T08:01:12.952Z,100.00
2022-12-01T08:03:40.514Z,100.00
2022-12-01T08:06:08.390Z,100.00
2022-12-01T08:08:37.843Z,100.00
2022-12-01T08:11:26.768Z,100.00
2022-12-01T08:13:53.985Z,100.00
2022-12-01T08:16:22.720Z,100.00
2022-12-01T08:18:50.222Z,100.00
2022-12-01T08:21:19.529Z,100.00
2022-12-01T08:23:47.809Z,100.00
2022-12-01T08:26:17.152Z,100.00
2022-12-01T08:28:44.553Z,100.00
2022-12-01T08:31:24.635Z,100.00
2022-12-01T08:33:52.167Z,100.00
2022-12-01T08:36:20.596Z,100.00
2022-12-01T08:38:50.006Z,100.00
2022-12-01T08:41:17.103Z,100.00
2022-12-01T08:44:01.093Z,100.00
2022-12-01T08:46:32.287Z,100.00
2022-12-01T08:48:59.064Z,100.00
2022-12-01T08:51:26.599Z,100.00
2022-12-01T08:53:55.625Z,100.00
2022-12-01T08:56:25.919Z,100.00
2022-12-01T08:58:54.311Z,100.00
2022-12-01T09:01:21.914Z,100.00
2022-12-01T09:03:48.947Z,100.00
2022-12-01T09:06:17.678Z,100.00
2022-12-01T09:08:44.409Z,100.00
2022-12-01T09:11:14.298Z,100.00
2022-12-01T09:13:42.354Z,100.00
2022-12-01T09:16:11.824Z,100.00
2022-12-01T09:18:38.908Z,100.00
2022-12-01T09:21:16.706Z,100.00
2022-12-01T09:23:43.800Z,100.00
2022-12-01T09:26:13.787Z,100.00
2022-12-01T09:28:40.836Z,100.00
2022-12-01T09:31:09.864Z,100.00
2022-12-01T09:33:36.676Z,100.00
2022-12-01T09:36:05.792Z,100.00
2022-12-01T09:38:34.492Z,100.00
2022-12-01T09:41:07.136Z,100.00
2022-12-01T09:43:41.433Z,100.00
2022-12-01T09:46:16.023Z,100.00
2022-12-01T09:48:47.960Z,100.00
2022-12-01T09:51:22.689Z,100.00
2022-12-01T09:53:53.406Z,100.00
2022-12-01T09:56:32.304Z,100.00
2022-12-01T09:59:02.902Z,100.00
2022-12-01T10:01:42.980Z,100.00
2022-12-01T10:04:38.180Z,100.00
2022-12-01T10:07:37.299Z,100.00
2022-12-01T10:10:38.248Z,100.00
2022-12-01T10:13:26.550Z,100.00
2022-12-01T10:16:12.516Z,100.00
2022-12-01T10:19:01.736Z,100.00
2022-12-01T10:21:34.131Z,100.00
2022-12-01T10:24:06.373Z,100.00
2022-12-01T10:27:00.694Z,100.00
2022-12-01T10:29:47.329Z,100.00
2022-12-01T10:32:23.080Z,100.00
2022-12-01T10:34:49.748Z,100.00
2022-12-01T10:37:28.545Z,100.00
2022-12-01T10:39:57.190Z,100.00
2022-12-01T10:42:37.659Z,100.00
2022-12-01T10:45:07.676Z,100.00
2022-12-01T10:47:34.316Z,100.00
2022-12-01T10:50:05.318Z,100.00
2022-12-01T10:52:32.045Z,100.00
2022-12-01T10:54:59.590Z,100.00
2022-12-01T10:57:29.622Z,100.00
2022-12-01T11:00:01.068Z,100.00
2022-12-01T11:02:29.689Z,100.00
2022-12-01T11:05:02.802Z,100.00
2022-12-01T11:07:42.929Z,100.00
2022-12-01T11:10:12.380Z,100.00
2022-12-01T11:12:39.830Z,100.00
2022-12-01T11:15:07.861Z,100.00
2022-12-01T11:17:43.242Z,100.00
2022-12-01T11:20:37.507Z,100.00
2022-12-01T11:23:26.406Z,100.00
2022-12-01T11:26:23.676Z,100.00
2022-12-01T11:28:54.733Z,100.00
2022-12-01T11:31:25.256Z,100.00
2022-12-01T11:33:56.405Z,100.00
2022-12-01T11:36:31.694Z,100.00
2022-12-01T11:39:01.500Z,100.00
2022-12-01T11:41:40.788Z,100.00
2022-12-01T11:47:25.105Z,100.00
2022-12-01T11:49:58.087Z,100.00
2022-12-01T11:52:24.645Z,100.00
2022-12-01T11:55:18.813Z,100.00
2022-12-01T11:57:48.221Z,100.00
2022-12-01T12:00:17.098Z,100.00
2022-12-01T12:03:14.741Z,100.00
2022-12-01T12:05:45.565Z,100.00
2022-12-01T12:08:35.643Z,100.00
2022-12-01T12:11:26.238Z,100.00
2022-12-01T12:14:19.982Z,100.00
2022-12-01T12:17:15.109Z,98.84
2022-12-01T12:20:07.564Z,97.38
2022-12-01T12:22:55.763Z,96.79
2022-12-01T12:25:25.392Z,94.67
2022-12-01T12:28:34.330Z,93.20
2022-12-01T12:31:25.509Z,93.02
2022-12-01T12:34:25.438Z,92.70
2022-12-01T12:37:05.929Z,93.79
2022-12-01T12:39:51.359Z,92.12
2022-12-01T12:42:21.029Z,90.62
2022-12-01T12:45:13.473Z,89.56
2022-12-01T12:47:45.761Z,90.75
2022-12-01T12:50:32.602Z,91.38
2022-12-01T12:53:10.168Z,91.13
2022-12-01T12:55:42.753Z,90.48
2022-12-01T12:58:25.986Z,89.57
2022-12-01T13:01:12.352Z,90.80
2022-12-01T13:04:04.454Z,88.12
2022-12-01T13:06:39.132Z,88.66
2022-12-01T13:09:14.963Z,88.75
2022-12-01T13:11:51.712Z,87.12
2022-12-01T13:14:42.476Z,86.87
2022-12-01T13:17:20.978Z,81.70
2022-12-01T13:19:48.572Z,82.29
2022-12-01T13:22:18.883Z,82.97
2022-12-01T13:24:45.548Z,81.62
2022-12-01T13:27:23.791Z,80.75
2022-12-01T13:29:53.570Z,84.76
2022-12-01T13:32:40.378Z,85.79
2022-12-01T13:35:20.809Z,86.29
2022-12-01T13:37:48.210Z,88.30
2022-12-01T13:40:29.187Z,90.17
2022-12-01T13:43:18.544Z,91.29
2022-12-01T13:45:46.057Z,90.84
2022-12-01T13:48:45.320Z,90.43
2022-12-01T13:51:12.042Z,89.85
2022-12-01T13:53:52.289Z,84.33
2022-12-01T13:56:18.861Z,81.31
2022-12-01T13:58:51.343Z,76.81
2022-12-01T14:01:21.492Z,77.84
2022-12-01T14:04:11.773Z,80.85
2022-12-01T14:06:49.223Z,81.53
2022-12-01T14:09:44.012Z,82.01
2022-12-01T14:12:31.512Z,82.23
2022-12-01T14:15:03.585Z,80.84
2022-12-01T14:17:34.018Z,78.07
2022-12-01T14:20:17.621Z,76.01
2022-12-01T14:22:46.743Z,75.37
2022-12-01T14:25:22.734Z,76.01
2022-12-01T14:27:53.386Z,79.56
2022-12-01T14:30:41.963Z,81.12
2022-12-01T14:33:39.446Z,83.54
2022-12-01T14:36:26.230Z,84.76
2022-12-01T14:39:06.203Z,86.41
2022-12-01T14:41:49.403Z,88.50
2022-12-01T14:44:34.679Z,89.20
2022-12-01T14:47:10.354Z,90.37
2022-12-01T14:49:42.897Z,91.88
2022-12-01T14:52:35.818Z,91.84
2022-12-01T14:55:13.593Z,93.47
2022-12-01T14:57:42.697Z,94.13
2022-12-01T15:00:15.747Z,94.82
2022-12-01T15:02:54.161Z,96.12
2022-12-01T15:05:23.963Z,97.75
2022-12-01T15:07:58.843Z,97.85
2022-12-01T15:10:37.708Z,98.20
2022-12-01T15:13:39.273Z,98.39
2022-12-01T15:16:15.053Z,97.07
2022-12-01T15:18:42.131Z,97.44
2022-12-01T15:21:26.146Z,97.60
2022-12-01T15:24:06.362Z,96.83
2022-12-01T15:26:36.325Z,96.81
2022-12-01T15:29:12.013Z,97.13
2022-12-01T15:31:39.081Z,96.11
2022-12-01T15:34:06.366Z,96.63
2022-12-01T15:36:33.106Z,96.34
2022-12-01T15:39:06.744Z,96.22
2022-12-01T15:41:35.430Z,95.76
2022-12-01T15:44:03.660Z,95.74
2022-12-01T15:46:34.328Z,95.65
2022-12-01T15:49:40.426Z,95.37
2022-12-01T15:52:10.514Z,96.02
2022-12-01T15:54:38.613Z,96.51
2022-12-01T15:57:06.711Z,97.05
2022-12-01T15:59:36.558Z,98.21
2022-12-01T16:02:30.054Z,98.65
2022-12-01T16:05:25.996Z,98.98
2022-12-01T16:10:41.211Z,99.85
2022-12-01T16:13:38.682Z,98.77
2022-12-01T16:16:23.695Z,99.19
2022-12-01T16:18:57.955Z,99.97
2022-12-01T16:21:26.273Z,100.00
2022-12-01T16:24:01.247Z,100.00
2022-12-01T16:26:29.083Z,99.76
2022-12-01T16:28:56.485Z,99.81
2022-12-01T16:31:26.130Z,100.00
2022-12-01T16:34:18.481Z,100.00
2022-12-01T16:36:50.569Z,100.00
2022-12-01T16:39:17.778Z,100.00
2022-12-01T16:41:44.971Z,99.53
2022-12-01T16:44:27.932Z,100.00
2022-12-01T16:46:55.818Z,99.56
2022-12-01T16:49:22.794Z,100.00
2022-12-01T16:51:56.036Z,99.78
2022-12-01T16:54:23.375Z,99.19
2022-12-01T16:56:50.005Z,99.34
2022-12-01T16:59:16.600Z,99.83
2022-12-01T17:01:43.335Z,100.00
2022-12-01T17:04:09.958Z,100.00
2022-12-01T17:06:38.374Z,99.86
2022-12-01T17:09:05.771Z,100.00
2022-12-01T17:11:32.603Z,100.00
2022-12-01T17:13:59.220Z,99.25
2022-12-01T17:16:25.940Z,99.34
2022-12-01T17:18:52.603Z,100.00
2022-12-01T17:21:19.376Z,100.00
2022-12-01T17:23:46.140Z,100.00
2022-12-01T17:26:15.859Z,100.00
2022-12-01T17:28:42.730Z,100.00
2022-12-01T17:31:09.800Z,100.00
2022-12-01T17:33:37.221Z,100.00
2022-12-01T17:36:07.748Z,100.00
2022-12-01T17:38:36.458Z,100.00
2022-12-01T17:41:10.299Z,100.00
2022-12-01T17:43:38.581Z,100.00
2022-12-01T17:46:07.928Z,100.00
2022-12-01T17:48:40.157Z,100.00
2022-12-01T17:51:08.897Z,100.00
2022-12-01T17:53:36.955Z,100.00
2022-12-01T17:56:08.167Z,100.00
2022-12-01T17:58:35.729Z,100.00
2022-12-01T18:01:03.003Z,100.00
2022-12-01T18:03:30.599Z,100.00
2022-12-01T18:06:01.764Z,100.00
2022-12-01T18:08:30.369Z,100.00
2022-12-01T18:11:02.108Z,100.00
2022-12-01T18:13:29.640Z,100.00
2022-12-01T18:15:56.335Z,100.00
2022-12-01T18:18:23.046Z,100.00
2022-12-01T18:20:49.646Z,100.00
2022-12-01T18:23:16.268Z,100.00
2022-12-01T18:25:42.844Z,100.00
2022-12-01T18:28:11.122Z,100.00
2022-12-01T18:30:38.905Z,100.00
2022-12-01T18:33:10.904Z,100.00
2022-12-01T18:35:43.279Z,100.00
2022-12-01T18:38:10.224Z,100.00
2022-12-01T18:40:37.990Z,100.00
2022-12-01T18:43:05.233Z,100.00
2022-12-01T18:45:32.062Z,100.00
2022-12-01T18:47:58.713Z,100.00
2022-12-01T18:50:25.330Z,100.00
2022-12-01T18:52:52.004Z,100.00
2022-12-01T18:55:18.674Z,100.00
2022-12-01T18:57:45.396Z,100.00
2022-12-01T19:00:12.701Z,100.00
2022-12-01T19:02:39.308Z,100.00
2022-12-01T19:05:06.418Z,100.00
2022-12-01T19:07:33.066Z,100.00
2022-12-01T19:09:59.784Z,100.00
2022-12-01T19:12:26.443Z,100.00
2022-12-01T19:14:54.212Z,100.00
2022-12-01T19:17:21.467Z,100.00
2022-12-01T19:19:48.085Z,100.00
2022-12-01T19:22:15.853Z,100.00
2022-12-01T19:24:47.139Z,100.00
2022-12-01T19:27:17.097Z,100.00
2022-12-01T19:29:43.792Z,100.00
2022-12-01T19:32:10.993Z,100.00
2022-12-01T19:34:37.771Z,100.00
2022-12-01T19:37:05.267Z,100.00
2022-12-01T19:39:32.698Z,100.00
2022-12-01T19:41:59.297Z,100.00
2022-12-01T19:44:25.965Z,100.00
2022-12-01T19:46:53.327Z,100.00
2022-12-01T19:49:19.982Z,100.00
2022-12-01T19:51:47.004Z,100.00
2022-12-01T19:54:20.078Z,100.00
2022-12-01T19:56:46.792Z,100.00
2022-12-01T19:59:14.877Z,100.00
2022-12-01T20:01:41.691Z,100.00
2022-12-01T20:04:08.977Z,100.00
2022-12-01T20:06:37.167Z,100.00
2022-12-01T20:09:06.657Z,100.00
2022-12-01T20:11:35.567Z,100.00
2022-12-01T20:14:03.279Z,100.00
2022-12-01T20:16:30.782Z,100.00
2022-12-01T20:19:00.772Z,100.00
2022-12-01T20:21:30.721Z,100.00
2022-12-01T20:23:59.732Z,100.00
2022-12-01T20:26:30.724Z,100.00
2022-12-01T20:29:04.268Z,100.00
2022-12-01T20:31:33.626Z,100.00
2022-12-01T20:34:04.852Z,100.00
2022-12-01T20:36:32.560Z,100.00
2022-12-01T20:38:59.403Z,100.00
2022-12-01T20:41:26.304Z,100.00
2022-12-01T20:43:53.079Z,100.00
2022-12-01T20:46:19.989Z,100.00
2022-12-01T20:48:46.704Z,100.00
2022-12-01T20:51:14.785Z,100.00
2022-12-01T20:53:54.510Z,100.00
2022-12-01T20:56:28.665Z,100.00
2022-12-01T20:58:55.422Z,100.00
2022-12-01T21:01:25.076Z,100.00
2022-12-01T21:03:52.773Z,100.00
2022-12-01T21:06:20.893Z,100.00
2022-12-01T21:08:49.616Z,100.00
2022-12-01T21:11:41.490Z,100.00
2022-12-01T21:14:17.956Z,100.00
2022-12-01T21:16:48.327Z,100.00
2022-12-01T21:19:22.941Z,100.00
2022-12-01T21:21:49.623Z,100.00
2022-12-01T21:24:19.590Z,100.00
2022-12-01T21:26:58.705Z,100.00
2022-12-01T21:29:28.366Z,100.00
2022-12-01T21:32:10.022Z,100.00
2022-12-01T21:34:36.727Z,100.00
2022-12-01T21:37:10.733Z,100.00
2022-12-01T21:39:38.521Z,100.00
2022-12-01T21:42:18.309Z,100.00
2022-12-01T21:44:45.579Z,100.00
2022-12-01T21:47:23.746Z,100.00
2022-12-01T21:49:53.108Z,100.00
2022-12-01T21:52:22.723Z,100.00
2022-12-01T21:54:50.159Z,100.00
2022-12-01T21:57:43.105Z,100.00
2022-12-01T22:00:28.214Z,100.00
2022-12-01T22:03:24.760Z,100.00
2022-12-01T22:06:27.724Z,100.00
2022-12-01T22:08:46.471Z,100.00
2022-12-01T22:11:21.996Z,100.00
2022-12-01T22:13:59.262Z,100.00
2022-12-01T22:16:30.511Z,100.00
2022-12-01T22:18:59.425Z,100.00
2022-12-01T22:21:31.299Z,100.00
2022-12-01T22:24:09.802Z,100.00
2022-12-01T22:26:43.251Z,100.00
2022-12-01T22:29:28.407Z,100.00
2022-12-01T22:32:01.216Z,100.00
2022-12-01T22:34:28.036Z,100.00
2022-12-01T22:36:55.033Z,100.00
2022-12-01T22:39:34.109Z,100.00
2022-12-01T22:42:07.783Z,100.00
2022-12-01T22:44:34.443Z,100.00
2022-12-01T22:47:03.105Z,100.00
2022-12-01T22:49:30.844Z,100.00
2022-12-01T22:52:05.697Z,100.00
2022-12-01T22:54:43.574Z,100.00
2022-12-01T22:57:19.022Z,100.00
2022-12-01T22:59:47.755Z,100.00
2022-12-01T23:02:29.469Z,100.00
2022-12-01T23:05:01.381Z,100.00
2022-12-01T23:07:31.894Z,100.00
2022-12-01T23:10:18.708Z,100.00
2022-12-01T23:12:47.704Z,100.00
2022-12-01T23:15:47.877Z,100.00
2022-12-01T23:18:16.063Z,100.00
2022-12-01T23:20:46.117Z,100.00
2022-12-01T23:23:16.733Z,100.00
2022-12-01T23:25:44.682Z,100.00
2022-12-01T23:28:13.004Z,100.00
2022-12-01T23:30:42.180Z,100.00
2022-12-01T23:33:08.772Z,100.00
2022-12-01T23:35:41.359Z,100.00
2022-12-01T23:38:18.057Z,100.00
2022-12-01T23:40:45.347Z,100.00
2022-12-01T23:43:18.775Z,100.00
2022-12-01T23:45:45.699Z,100.00
2022-12-01T23:48:20.664Z,100.00
2022-12-01T23:50:50.122Z,100.00
2022-12-01T23:53:29.154Z,100.00
2022-12-01T23:55:59.060Z,100.00
2022-12-01T23:58:26.408Z,100.00
